Time;durP1;ratioP1;P1;durP2;ratioP2;P2;SDS_P1;SDS_P2;PMS_P1;PMS_P2;Temp;Humidity;BMP_temperature;BMP_pressure;BME280_temperature;BME280_humidity;BME280_pressure;Samples;Min_cycle;Max_cycle;Signal;HPM_P1;HPM_P2
2023/09/06 00:00:34;;;;;;;6.47;4.55;;;16.60;94.10;;;;;;4946337;29;20047;-76
2023/09/06 00:03:00;;;;;;;9.40;5.00;;;16.60;94.60;;;;;;4946340;29;20035;-77
2023/09/06 00:05:26;;;;;;;8.05;4.93;;;16.50;94.20;;;;;;4945333;29;20036;-75
2023/09/06 00:07:52;;;;;;;7.38;5.07;;;16.50;94.60;;;;;;4945730;29;20217;-75
2023/09/06 00:10:19;;;;;;;7.05;4.85;;;16.40;95.00;;;;;;4944753;29;20229;-75
2023/09/06 00:12:45;;;;;;;7.57;4.85;;;16.20;95.20;;;;;;4945541;29;20095;-75
2023/09/06 00:15:12;;;;;;;6.72;4.45;;;16.10;95.40;;;;;;4946037;29;20035;-75
2023/09/06 00:17:40;;;;;;;7.57;5.20;;;16.00;95.60;;;;;;4945115;29;20059;-75
2023/09/06 00:20:20;;;;;;;;;;;16.00;95.80;;;;;;4945246;29;20086;-75
2023/09/06 00:22:54;;;;;;;8.65;4.75;;;16.00;95.90;;;;;;4945692;29;19907;-76
2023/09/06 00:25:20;;;;;;;7.05;4.75;;;15.90;96.00;;;;;;4946028;29;20103;-75
2023/09/06 00:27:46;;;;;;;7.07;4.43;;;15.90;96.00;;;;;;4944338;29;20039;-76
2023/09/06 00:30:11;;;;;;;7.60;4.60;;;15.90;96.10;;;;;;4945590;29;20037;-75
2023/09/06 05:01:01;;;;;;;8.93;6.40;;;13.30;99.90;;;;;;5794350;23;20023;-74
2023/09/06 05:03:27;;;;;;;10.30;6.38;;;13.30;99.90;;;;;;4959809;29;20027;-74
2023/09/06 05:05:54;;;;;;;9.75;6.35;;;13.30;99.90;;;;;;4962702;29;20300;-74
2023/09/06 05:08:22;;;;;;;10.90;6.07;;;13.30;99.90;;;;;;4945772;28;20298;-74
2023/09/06 05:10:54;;;;;;;10.18;6.93;;;13.40;99.90;;;;;;4960599;29;20035;-76
2023/09/06 05:13:22;;;;;;;8.93;6.20;;;13.40;99.90;;;;;;4947607;29;20316;-74
2023/09/06 05:15:48;;;;;;;13.50;7.40;;;13.50;99.90;;;;;;4947948;29;20169;-74
2023/09/06 05:18:14;;;;;;;12.27;7.68;;;13.60;99.90;;;;;;4954589;29;20023;-75
2023/09/06 05:20:42;;;;;;;12.55;7.40;;;13.60;99.90;;;;;;4949719;28;20036;-73
2023/09/06 05:23:15;;;;;;;11.90;7.38;;;13.60;99.90;;;;;;4927865;29;20059;-75
2023/09/06 05:25:43;;;;;;;;;;;13.60;99.90;;;;;;4961001;29;20055;-74
2023/09/06 05:28:15;;;;;;;11.07;6.70;;;13.60;99.90;;;;;;4960103;29;19974;-76
2023/09/06 05:30:46;;;;;;;12.13;7.20;;;13.70;99.90;;;;;;4960339;28;20044;-74
2023/09/06 05:33:15;;;;;;;12.45;7.22;;;13.80;99.90;;;;;;4958699;28;20159;-74
2023/09/06 05:35:43;;;;;;;11.32;7.25;;;13.90;99.90;;;;;;4974025;28;20240;-75
2023/09/06 05:38:09;;;;;;;10.52;6.40;;;14.00;99.90;;;;;;4948966;29;20263;-74
2023/09/06 05:40:40;;;;;;;11.45;6.50;;;14.10;99.90;;;;;;4948354;29;20035;-74
2023/09/06 05:43:07;;;;;;;11.13;7.10;;;14.20;99.90;;;;;;4946713;29;20282;-74
2023/09/06 05:45:34;;;;;;;16.80;7.50;;;14.30;99.90;;;;;;4947153;29;20107;-75
2023/09/06 05:48:00;;;;;;;12.45;7.22;;;14.40;99.90;;;;;;4946632;29;20194;-75
2023/09/06 05:50:29;;;;;;;15.27;6.88;;;14.50;99.90;;;;;;4931324;29;20132;-74
2023/09/06 05:52:56;;;;;;;13.35;6.93;;;14.60;99.90;;;;;;4946437;29;20024;-75
2023/09/06 05:55:23;;;;;;;12.68;7.53;;;14.70;99.90;;;;;;4946553;29;20059;-74
2023/09/06 05:57:50;;;;;;;11.97;7.03;;;14.80;99.90;;;;;;4946915;29;20028;-75
2023/09/06 06:00:17;;;;;;;15.40;7.75;;;14.90;99.90;;;;;;4947805;29;20095;-75
2023/09/06 06:02:49;;;;;;;11.55;7.05;;;15.00;99.90;;;;;;4945642;29;20377;-75
2023/09/06 06:05:18;;;;;;;11.70;7.43;;;15.10;99.90;;;;;;4927537;29;20028;-75
2023/09/06 06:07:45;;;;;;;12.93;7.60;;;15.20;99.90;;;;;;4927819;29;20032;-75
2023/09/06 06:10:13;;;;;;;18.38;6.70;;;15.20;99.90;;;;;;4941907;29;20042;-75
2023/09/06 06:12:39;;;;;;;12.90;6.72;;;15.30;99.90;;;;;;4946683;29;20250;-75
2023/09/06 06:15:08;;;;;;;13.23;6.53;;;15.40;99.90;;;;;;4947599;29;20035;-75
2023/09/06 06:17:35;;;;;;;10.98;6.60;;;15.40;99.90;;;;;;4946900;29;20035;-76
2023/09/06 06:20:01;;;;;;;9.13;6.00;;;15.50;99.90;;;;;;4946950;29;20301;-75
2023/09/06 06:22:27;;;;;;;11.75;6.22;;;15.60;99.90;;;;;;4947576;29;20038;-75
2023/09/06 06:24:53;;;;;;;10.68;6.47;;;15.70;99.90;;;;;;4946479;29;20051;-75
2023/09/06 06:27:18;;;;;;;12.60;5.95;;;15.80;99.90;;;;;;4947355;29;20062;-75
2023/09/06 06:29:44;;;;;;;9.65;6.03;;;15.90;99.90;;;;;;4947340;29;20035;-75
2023/09/06 06:32:10;;;;;;;13.70;6.25;;;15.90;99.90;;;;;;4946605;29;20087;-75
2023/09/06 06:34:39;;;;;;;13.27;7.22;;;16.00;99.90;;;;;;4947162;29;20027;-76
2023/09/06 06:37:05;;;;;;;16.00;7.65;;;16.10;99.90;;;;;;4943384;29;20363;-75
2023/09/06 06:39:31;;;;;;;16.83;7.38;;;16.20;99.90;;;;;;4928193;29;20111;-74
2023/09/06 06:41:57;;;;;;;13.57;7.18;;;16.20;99.90;;;;;;4927758;29;20044;-75
2023/09/06 06:44:31;;;;;;;14.52;7.88;;;16.40;99.90;;;;;;4927151;29;20024;-74
2023/09/06 06:46:56;;;;;;;10.10;6.25;;;16.50;99.90;;;;;;4927757;29;20333;-76
2023/09/06 06:49:23;;;;;;;8.93;5.90;;;16.60;99.90;;;;;;4928199;29;20039;-75
2023/09/06 06:51:48;;;;;;;11.70;5.40;;;16.60;99.90;;;;;;4927145;29;20259;-75
2023/09/06 06:54:14;;;;;;;9.95;6.10;;;16.70;99.80;;;;;;4926395;29;20051;-76
2023/09/06 06:56:41;;;;;;;9.00;5.43;;;16.90;99.50;;;;;;4927743;29;20067;-76
2023/09/06 06:59:07;;;;;;;11.05;5.80;;;17.00;98.70;;;;;;4926478;29;20043;-74
2023/09/06 07:01:33;;;;;;;9.10;5.45;;;17.20;98.30;;;;;;4927461;29;20349;-75
2023/09/06 07:03:59;;;;;;;8.95;5.30;;;17.30;97.60;;;;;;4926252;29;20032;-75
2023/09/06 07:06:26;;;;;;;7.53;5.03;;;17.40;96.70;;;;;;4927725;29;20031;-75
2023/09/06 07:08:53;;;;;;;9.38;5.15;;;17.40;96.30;;;;;;4926766;29;20079;-76
2023/09/06 07:11:20;;;;;;;7.53;4.85;;;17.60;95.80;;;;;;4926956;29;20031;-74
2023/09/06 07:13:50;;;;;;;8.73;5.63;;;17.60;95.50;;;;;;4926979;29;20313;-75
2023/09/06 07:16:17;;;;;;;9.30;5.82;;;17.60;95.40;;;;;;4926999;29;20317;-75
2023/09/06 07:18:43;;;;;;;13.30;5.72;;;17.60;95.50;;;;;;4927786;29;20062;-74
2023/09/06 07:21:09;;;;;;;7.97;5.60;;;17.70;95.50;;;;;;4926840;29;20282;-74
2023/09/06 07:23:35;;;;;;;10.73;5.30;;;17.90;95.10;;;;;;4927106;29;20035;-74
2023/09/06 07:26:01;;;;;;;7.65;5.05;;;17.90;94.80;;;;;;4927321;29;20091;-76
2023/09/06 07:28:39;;;;;;;9.93;5.35;;;18.00;94.60;;;;;;4927341;29;20027;-74
2023/09/06 07:31:05;;;;;;;8.07;5.47;;;18.10;94.50;;;;;;4926076;29;20336;-75
2023/09/06 07:33:31;;;;;;;9.63;5.43;;;18.20;94.40;;;;;;4927130;29;20032;-73
2023/09/06 07:35:57;;;;;;;8.85;5.47;;;18.30;94.30;;;;;;4940446;29;20059;-75
2023/09/06 07:38:23;;;;;;;8.57;5.82;;;18.40;94.00;;;;;;4933589;29;20054;-73
2023/09/06 07:41:03;;;;;;;7.95;4.70;;;18.50;93.60;;;;;;4926308;29;20040;-75
2023/09/06 07:43:29;;;;;;;7.32;4.47;;;18.50;93.50;;;;;;4927513;29;20039;-74
2023/09/06 07:45:59;;;;;;;9.73;5.72;;;18.60;93.50;;;;;;4927071;29;20040;-74
2023/09/06 07:48:30;;;;;;;9.90;5.53;;;18.70;93.40;;;;;;4926130;29;20322;-75
2023/09/06 07:50:58;;;;;;;7.65;5.10;;;18.80;93.30;;;;;;4926691;29;20046;-75
2023/09/06 07:53:25;;;;;;;7.40;5.10;;;18.90;93.20;;;;;;4927196;29;20062;-73
2023/09/06 07:55:51;;;;;;;7.20;5.13;;;19.00;93.20;;;;;;4927079;29;20040;-76
2023/09/06 07:58:17;;;;;;;8.95;5.43;;;19.10;93.00;;;;;;4926279;29;20419;-75
2023/09/06 08:00:43;;;;;;;9.15;5.32;;;19.20;92.90;;;;;;4927120;29;20032;-76
2023/09/06 08:03:10;;;;;;;7.95;4.82;;;19.30;92.60;;;;;;4929764;29;20079;-76
2023/09/06 08:05:36;;;;;;;11.98;4.72;;;19.30;92.70;;;;;;4945774;29;20034;-75
2023/09/06 08:08:04;;;;;;;8.82;5.25;;;19.50;92.40;;;;;;4946907;29;20028;-75
2023/09/06 08:10:44;;;;;;;10.88;4.80;;;19.60;92.20;;;;;;4949714;29;20036;-75
2023/09/06 08:13:10;;;;;;;6.50;4.38;;;19.60;91.80;;;;;;4958503;28;20023;-73
2023/09/06 08:15:37;;;;;;;8.25;4.63;;;19.70;91.60;;;;;;4955008;29;20088;-74
2023/09/06 08:18:05;;;;;;;8.98;5.00;;;19.80;91.50;;;;;;4952181;29;20063;-73
2023/09/06 08:20:32;;;;;;;7.82;4.13;;;19.80;91.50;;;;;;4952466;29;20023;-74
2023/09/06 08:23:00;;;;;;;11.00;4.50;;;19.90;91.50;;;;;;4949383;29;20090;-74
2023/09/06 08:25:26;;;;;;;;;;;19.90;91.30;;;;;;4946037;29;20036;-75
2023/09/06 08:27:51;;;;;;;9.50;4.70;;;20.00;91.10;;;;;;4946781;29;20096;-75
2023/09/06 08:30:19;;;;;;;8.30;5.10;;;20.20;91.10;;;;;;4949428;29;20336;-74
2023/09/06 08:32:49;;;;;;;9.55;4.22;;;20.30;91.10;;;;;;4944738;29;20032;-75
2023/09/06 08:35:17;;;;;;;12.75;5.03;;;20.30;90.80;;;;;;4940904;29;20213;-76
2023/09/06 08:37:45;;;;;;;10.63;5.05;;;20.40;90.60;;;;;;4925585;29;20089;-75
2023/09/06 08:40:11;;;;;;;6.75;4.40;;;20.50;90.50;;;;;;4940377;29;20040;-75
2023/09/06 08:42:38;;;;;;;6.63;4.15;;;20.60;90.40;;;;;;4938213;29;20397;-75
2023/09/06 08:45:07;;;;;;;7.20;4.55;;;20.60;90.00;;;;;;4925759;29;20040;-75
2023/09/06 08:47:35;;;;;;;8.48;4.47;;;20.80;89.80;;;;;;4926164;29;20056;-76
2023/09/06 08:50:02;;;;;;;6.75;4.15;;;20.80;89.80;;;;;;4924877;29;20044;-75
2023/09/06 08:52:28;;;;;;;7.75;4.40;;;20.90;90.00;;;;;;4924856;29;20059;-73
2023/09/06 08:54:54;;;;;;;6.50;3.90;;;21.00;89.30;;;;;;4926037;29;20044;-73
2023/09/06 08:57:21;;;;;;;7.82;4.32;;;21.00;89.30;;;;;;4925954;29;20027;-74
2023/09/06 08:59:47;;;;;;;5.32;3.40;;;21.10;87.90;;;;;;4926384;29;20036;-74
2023/09/06 09:02:14;;;;;;;8.27;3.60;;;21.30;86.80;;;;;;4925160;29;20227;-75
2023/09/06 09:04:42;;;;;;;6.35;3.38;;;21.50;85.70;;;;;;4925842;29;20297;-75
2023/09/06 09:07:12;;;;;;;4.70;3.35;;;21.60;84.50;;;;;;4925389;29;20256;-76
2023/09/06 09:10:02;;;;;;;5.68;3.40;;;21.70;83.80;;;;;;4925904;29;20378;-75
2023/09/06 09:12:30;;;;;;;5.40;3.33;;;21.70;83.80;;;;;;4926055;29;20067;-75
2023/09/06 09:14:57;;;;;;;8.75;3.70;;;21.80;84.60;;;;;;4925885;29;20087;-75
2023/09/06 09:17:24;;;;;;;7.30;3.90;;;21.90;84.90;;;;;;4909209;29;20179;-75
2023/09/06 09:19:56;;;;;;;8.93;4.30;;;22.00;84.60;;;;;;4924947;29;20099;-75
2023/09/06 09:22:27;;;;;;;13.57;4.60;;;22.10;83.90;;;;;;4926023;29;20107;-75
2023/09/06 09:25:16;;;;;;;11.45;4.63;;;22.10;84.70;;;;;;4924931;29;20222;-75
2023/09/06 09:27:45;;;;;;;11.18;4.90;;;22.20;85.00;;;;;;4926003;29;20028;-73
2023/09/06 09:30:14;;;;;;;9.85;4.53;;;22.30;84.00;;;;;;4925374;29;20048;-74
2023/09/06 09:32:40;;;;;;;17.83;5.18;;;22.40;84.30;;;;;;4925648;29;20039;-75
2023/09/06 09:35:11;;;;;;;7.03;4.18;;;22.50;84.20;;;;;;4931198;29;20035;-75
2023/09/06 09:37:41;;;;;;;6.57;3.58;;;22.60;84.10;;;;;;4946566;29;20189;-75
2023/09/06 09:40:21;;;;;;;7.65;4.22;;;22.60;84.90;;;;;;4948039;29;20038;-74
2023/09/06 09:42:54;;;;;;;7.20;4.25;;;22.60;84.10;;;;;;4947829;29;20229;-74
2023/09/06 09:45:21;;;;;;;7.80;4.05;;;22.70;84.70;;;;;;4946223;29;20039;-74
2023/09/06 09:47:47;;;;;;;6.60;3.53;;;22.80;84.60;;;;;;4940025;29;20031;-75
2023/09/06 09:50:14;;;;;;;14.57;5.00;;;22.90;85.50;;;;;;4928452;29;20031;-74
2023/09/06 09:52:44;;;;;;;9.55;4.20;;;23.10;85.20;;;;;;4941566;29;20078;-74
2023/09/06 09:55:13;;;;;;;7.97;4.28;;;23.20;84.20;;;;;;4947345;29;20289;-75
2023/09/06 09:57:39;;;;;;;6.65;3.60;;;23.20;83.10;;;;;;4948250;29;20071;-74
2023/09/06 10:00:07;;;;;;;7.68;4.25;;;23.20;83.50;;;;;;4946378;29;20051;-76
2023/09/06 10:02:39;;;;;;;8.07;4.07;;;23.20;83.50;;;;;;4947427;29;20123;-75
2023/09/06 10:05:08;;;;;;;6.22;4.15;;;23.30;84.50;;;;;;4942789;29;20325;-75
2023/09/06 10:07:35;;;;;;;6.30;3.90;;;23.40;83.40;;;;;;4948048;29;20080;-74
2023/09/06 10:10:05;;;;;;;6.57;3.67;;;23.50;83.20;;;;;;4946229;29;20032;-75
2023/09/06 10:12:32;;;;;;;6.00;4.10;;;23.60;83.50;;;;;;4947831;29;20040;-76
2023/09/06 10:14:59;;;;;;;5.83;3.80;;;23.70;83.40;;;;;;4947401;29;20086;-75
2023/09/06 10:17:25;;;;;;;5.38;3.50;;;23.70;82.50;;;;;;4947572;29;20119;-75
2023/09/06 10:19:53;;;;;;;6.28;3.65;;;23.80;82.80;;;;;;4947749;29;20258;-75
2023/09/06 10:22:20;;;;;;;5.53;3.72;;;23.90;82.90;;;;;;4947230;29;20074;-75
2023/09/06 10:24:51;;;;;;;7.05;4.03;;;24.10;82.20;;;;;;4947674;29;20047;-76
2023/09/06 10:27:17;;;;;;;7.20;3.58;;;24.30;82.10;;;;;;4947377;29;20047;-80
2023/09/06 10:29:53;;;;;;;6.28;3.50;;;24.40;81.10;;;;;;4930350;29;20028;-75
2023/09/06 10:32:22;;;;;;;7.35;3.90;;;24.50;80.90;;;;;;4962075;29;20321;-75
2023/09/06 10:35:20;;;;;;;7.88;3.60;;;24.60;81.10;;;;;;4946422;29;20285;-74
2023/09/06 10:38:05;;;;;;;5.82;3.95;;;24.60;79.50;;;;;;4946649;29;20293;-74
2023/09/06 10:40:49;;;;;;;5.18;3.67;;;24.60;80.30;;;;;;4947035;29;20228;-74
2023/09/06 10:43:16;;;;;;;6.22;3.53;;;24.80;80.90;;;;;;4946777;29;20032;-76
2023/09/06 10:46:27;;;;;;;5.70;3.88;;;24.90;79.10;;;;;;4947456;29;20074;-75
2023/09/06 10:49:25;;;;;;;4.90;3.33;;;25.10;79.00;;;;;;4942369;29;20112;-75
2023/09/06 10:52:01;;;;;;;5.07;3.10;;;25.20;78.40;;;;;;4946943;29;20265;-76
2023/09/06 10:54:38;;;;;;;4.82;3.08;;;25.30;78.50;;;;;;4945866;29;20059;-74
2023/09/06 10:57:06;;;;;;;6.85;3.65;;;25.50;78.70;;;;;;4943489;29;20213;-76
2023/09/06 10:59:55;;;;;;;5.70;3.75;;;25.80;77.70;;;;;;4946752;29;20032;-76
2023/09/06 11:02:22;;;;;;;5.88;3.40;;;26.00;77.60;;;;;;4940158;29;20055;-74
2023/09/06 11:04:48;;;;;;;7.40;3.63;;;26.20;77.30;;;;;;4929749;29;20348;-74
2023/09/06 11:07:14;;;;;;;4.55;3.28;;;26.20;77.30;;;;;;4946213;29;20036;-74
2023/09/06 11:09:50;;;;;;;13.45;4.53;;;26.50;76.90;;;;;;4948421;29;20337;-74
2023/09/06 11:12:16;;;;;;;15.20;4.03;;;27.00;75.30;;;;;;4946454;29;20145;-76
2023/09/06 11:14:47;;;;;;;6.65;3.38;;;27.40;74.20;;;;;;4946527;29;20039;-74
2023/09/06 11:17:23;;;;;;;7.93;3.40;;;27.90;73.10;;;;;;4945376;29;20024;-75
2023/09/06 11:19:50;;;;;;;5.70;3.00;;;28.60;72.10;;;;;;4946693;29;20245;-80
2023/09/06 11:22:16;;;;;;;6.20;2.70;;;29.60;69.30;;;;;;4942754;29;20234;-79
2023/09/06 11:24:42;;;;;;;7.25;3.30;;;30.50;67.70;;;;;;4934502;29;20221;-77
2023/09/06 11:27:37;;;;;;;4.32;2.63;;;31.60;65.40;;;;;;4940823;29;20099;-78
2023/09/06 11:30:15;;;;;;;5.85;3.20;;;32.60;62.50;;;;;;4926846;29;20059;-78
2023/09/06 11:32:44;;;;;;;5.38;2.90;;;33.40;60.70;;;;;;4941060;29;20043;-78
2023/09/06 11:35:10;;;;;;;5.18;2.78;;;34.30;59.30;;;;;;4939543;29;20035;-77
2023/09/06 11:37:50;;;;;;;4.53;2.55;;;34.90;58.30;;;;;;4910555;29;20036;-76
2023/09/06 11:40:25;;;;;;;5.25;2.60;;;35.10;57.30;;;;;;4933722;29;20031;-76
2023/09/06 11:43:04;;;;;;;3.67;2.67;;;35.20;57.00;;;;;;4946381;29;20329;-78
2023/09/06 11:45:33;;;;;;;4.85;2.67;;;35.40;56.20;;;;;;4945230;29;20039;-77
2023/09/06 11:48:04;;;;;;;6.75;2.78;;;35.20;55.80;;;;;;4944541;29;20215;-77
2023/09/06 11:50:32;;;;;;;5.03;3.00;;;35.30;55.30;;;;;;4945826;29;20049;-77
2023/09/06 11:53:11;;;;;;;3.75;2.53;;;35.60;55.00;;;;;;4945819;29;20059;-79
2023/09/06 11:55:43;;;;;;;4.85;2.85;;;35.90;54.70;;;;;;4945900;29;20291;-76
2023/09/06 11:58:20;;;;;;;4.65;2.85;;;36.00;54.20;;;;;;4932274;29;20036;-77
2023/09/06 12:00:48;;;;;;;6.22;2.42;;;35.60;54.20;;;;;;4926707;29;20285;-78
2023/09/06 12:03:26;;;;;;;4.30;2.70;;;35.50;54.00;;;;;;4926094;29;20072;-76
2023/09/06 12:05:56;;;;;;;3.88;2.45;;;35.80;53.60;;;;;;4927266;29;20040;-78
2023/09/06 12:08:23;;;;;;;3.80;2.80;;;36.10;53.20;;;;;;4926386;29;20036;-78
2023/09/06 12:10:54;;;;;;;3.55;2.53;;;36.30;52.60;;;;;;4926840;29;20044;-76
2023/09/06 12:13:30;;;;;;;4.40;2.83;;;36.80;52.30;;;;;;4926111;29;20036;-77
2023/09/06 12:15:57;;;;;;;4.30;2.60;;;37.00;52.20;;;;;;4926500;29;20066;-77
2023/09/06 12:18:25;;;;;;;3.83;2.50;;;37.40;51.40;;;;;;4925704;29;20028;-77
2023/09/06 12:20:50;;;;;;;5.90;2.85;;;37.70;50.90;;;;;;4926481;29;20043;-78
2023/09/06 12:23:20;;;;;;;6.32;2.75;;;38.20;50.70;;;;;;4925465;29;20020;-77
2023/09/06 12:25:46;;;;;;;5.07;2.50;;;38.20;50.50;;;;;;4943698;29;20210;-77
2023/09/06 12:28:13;;;;;;;3.90;2.57;;;38.20;50.20;;;;;;4944826;29;20031;-78
2023/09/06 12:30:38;;;;;;;4.22;2.40;;;38.70;49.70;;;;;;4944855;29;20264;-78
2023/09/06 12:33:04;;;;;;;5.05;2.40;;;39.10;49.10;;;;;;4925957;29;20032;-78
2023/09/06 12:35:37;;;;;;;4.82;2.55;;;39.90;48.80;;;;;;4935637;29;20266;-78
2023/09/06 12:38:03;;;;;;;3.78;2.25;;;40.30;48.40;;;;;;4945356;29;20040;-77
2023/09/06 12:40:30;;;;;;;3.35;2.22;;;39.90;48.20;;;;;;4945596;29;20043;-77
2023/09/06 12:42:57;;;;;;;5.45;2.67;;;40.10;48.20;;;;;;4944550;29;20043;-76
2023/09/06 12:45:27;;;;;;;4.05;2.60;;;40.10;48.00;;;;;;4945384;29;20028;-77
2023/09/06 12:47:58;;;;;;;4.53;2.60;;;39.80;47.50;;;;;;4945607;29;20028;-77
2023/09/06 12:50:24;;;;;;;5.95;2.50;;;39.80;47.80;;;;;;4948302;29;20073;-77
2023/09/06 12:52:51;;;;;;;4.23;2.20;;;39.90;47.50;;;;;;4949325;29;20241;-77
2023/09/06 12:55:17;;;;;;;3.77;2.40;;;40.60;47.00;;;;;;4949940;29;20027;-78
2023/09/06 12:57:43;;;;;;;3.53;2.58;;;41.40;46.40;;;;;;4958806;29;20412;-76
2023/09/06 13:00:12;;;;;;;4.35;2.45;;;42.10;46.10;;;;;;4938707;29;20123;-77
2023/09/06 13:02:42;;;;;;;3.70;2.60;;;42.40;45.00;;;;;;4938171;29;20076;-78
2023/09/06 13:05:09;;;;;;;4.15;2.65;;;41.70;45.30;;;;;;4927504;29;20039;-78
2023/09/06 13:07:36;;;;;;;3.75;2.40;;;42.20;45.20;;;;;;4926543;29;20044;-79
2023/09/06 13:10:03;;;;;;;4.53;2.67;;;42.30;45.50;;;;;;4926089;29;20040;-78
2023/09/06 13:12:29;;;;;;;3.90;2.40;;;42.40;45.40;;;;;;4927531;29;20036;-78
2023/09/06 13:14:56;;;;;;;3.97;2.30;;;43.40;45.50;;;;;;4930084;29;20043;-79
2023/09/06 13:17:22;;;;;;;5.18;2.40;;;43.70;44.30;;;;;;4929468;29;20055;-80
2023/09/06 13:19:49;;;;;;;7.47;2.88;;;43.90;44.20;;;;;;4929665;29;20167;-78
2023/09/06 13:22:14;;;;;;;4.72;2.40;;;43.70;44.00;;;;;;4912775;29;20306;-75
2023/09/06 13:24:40;;;;;;;3.83;2.35;;;44.40;43.60;;;;;;4930802;29;20047;-78
2023/09/06 13:27:06;;;;;;;5.03;2.40;;;44.30;42.90;;;;;;4947030;29;20028;-78
2023/09/06 13:29:35;;;;;;;6.15;2.83;;;43.70;42.80;;;;;;4947751;29;20036;-79
2023/09/06 13:32:03;;;;;;;3.08;2.33;;;43.70;43.70;;;;;;4936891;29;20059;-77
2023/09/06 13:34:29;;;;;;;4.18;2.38;;;44.40;42.80;;;;;;4930434;29;20058;-77
2023/09/06 13:36:54;;;;;;;4.30;2.30;;;44.30;43.20;;;;;;4948595;29;20024;-75
2023/09/06 13:39:22;;;;;;;5.93;2.60;;;44.20;42.70;;;;;;4948147;29;20329;-78
2023/09/06 13:41:48;;;;;;;4.18;2.63;;;44.50;43.20;;;;;;4948553;29;20207;-79
2023/09/06 13:44:14;;;;;;;3.90;2.25;;;44.50;43.00;;;;;;4948002;29;20102;-79
2023/09/06 13:46:40;;;;;;;4.23;3.13;;;44.20;42.60;;;;;;4948506;29;20051;-77
2023/09/06 13:49:07;;;;;;;4.90;2.60;;;44.60;42.50;;;;;;4948314;29;20035;-77
2023/09/06 13:51:34;;;;;;;;;;;45.10;42.00;;;;;;4932198;29;20038;-78
2023/09/06 13:53:59;;;;;;;3.67;2.03;;;45.90;41.80;;;;;;4946823;29;19910;-78
2023/09/06 13:56:25;;;;;;;3.05;2.13;;;46.40;41.50;;;;;;4947974;29;20031;-78
2023/09/06 13:58:51;;;;;;;4.43;2.07;;;46.80;41.00;;;;;;4948463;29;20079;-79
2023/09/06 14:01:17;;;;;;;3.90;2.33;;;47.00;40.50;;;;;;4947436;29;20483;-79
2023/09/06 14:03:43;;;;;;;2.93;2.37;;;47.10;40.60;;;;;;4940409;29;20300;-78
2023/09/06 14:06:09;;;;;;;5.47;2.27;;;46.90;40.80;;;;;;4927941;29;20418;-80
2023/09/06 14:08:35;;;;;;;2.92;2.25;;;46.90;41.10;;;;;;4929609;29;20199;-78
2023/09/06 14:11:03;;;;;;;4.40;2.35;;;47.00;41.10;;;;;;4930615;29;20040;-78
2023/09/06 14:13:29;;;;;;;3.72;1.92;;;47.50;40.90;;;;;;4912249;29;20036;-79
2023/09/06 14:16:05;;;;;;;5.70;2.88;;;47.50;41.10;;;;;;4929079;29;20032;-79
2023/09/06 14:18:35;;;;;;;3.72;2.17;;;48.10;40.50;;;;;;4927787;29;20032;-79
2023/09/06 14:21:01;;;;;;;3.10;2.33;;;47.90;40.30;;;;;;4928222;29;20339;-76
2023/09/06 14:23:26;;;;;;;3.10;1.70;;;47.70;40.20;;;;;;4927759;29;20278;-79
2023/09/06 14:25:52;;;;;;;3.33;1.90;;;47.50;40.90;;;;;;4920317;29;20083;-78
2023/09/06 14:28:19;;;;;;;2.87;2.20;;;48.00;40.50;;;;;;4927528;29;20044;-78
2023/09/06 14:30:45;;;;;;;4.05;1.95;;;48.20;39.60;;;;;;4928356;29;20044;-79
2023/09/06 14:33:14;;;;;;;2.88;2.10;;;48.20;40.40;;;;;;4928411;29;20076;-79
2023/09/06 14:35:42;;;;;;;2.95;1.70;;;48.30;39.80;;;;;;4928542;29;20040;-79
2023/09/06 14:38:08;;;;;;;5.35;2.38;;;48.50;39.80;;;;;;4928188;29;20040;-79
2023/09/06 14:40:42;;;;;;;4.68;2.20;;;47.30;40.20;;;;;;4928830;29;20034;-79
2023/09/06 14:43:08;;;;;;;4.25;2.10;;;46.40;40.50;;;;;;4927192;29;20087;-78
2023/09/06 14:45:38;;;;;;;5.10;2.50;;;46.10;40.60;;;;;;4927511;29;20047;-78
2023/09/06 14:48:05;;;;;;;5.10;2.38;;;46.20;41.20;;;;;;4926266;29;20452;-78
2023/09/06 14:50:33;;;;;;;3.30;2.42;;;46.60;40.60;;;;;;4928243;29;20040;-79
2023/09/06 14:52:59;;;;;;;3.05;1.98;;;46.00;40.70;;;;;;4911491;29;20068;-79
2023/09/06 14:55:34;;;;;;;5.60;3.15;;;46.00;41.40;;;;;;4928743;29;20020;-79
2023/09/06 14:58:04;;;;;;;5.03;3.05;;;46.60;40.90;;;;;;4932168;29;20107;-77
2023/09/06 15:00:32;;;;;;;4.95;2.80;;;47.30;40.70;;;;;;4928324;29;20042;-79
2023/09/06 15:02:59;;;;;;;4.18;2.67;;;47.80;40.00;;;;;;4927885;29;20111;-79
2023/09/06 15:05:25;;;;;;;4.57;2.53;;;48.10;39.90;;;;;;4928290;29;20242;-78
2023/09/06 15:07:50;;;;;;;3.47;2.10;;;47.30;40.00;;;;;;4928255;29;20032;-79
2023/09/06 15:10:16;;;;;;;2.73;1.97;;;46.90;40.20;;;;;;4926466;29;20036;-79
2023/09/06 15:12:43;;;;;;;4.95;2.30;;;46.50;40.20;;;;;;4927968;29;20111;-80
2023/09/06 15:15:11;;;;;;;4.53;2.75;;;47.20;40.50;;;;;;4927815;29;20092;-79
2023/09/06 15:17:37;;;;;;;4.68;3.20;;;47.30;40.30;;;;;;4926981;29;20091;-80
2023/09/06 15:20:06;;;;;;;5.78;2.90;;;47.70;40.20;;;;;;4927687;29;20035;-79
2023/09/06 15:22:33;;;;;;;4.35;2.38;;;47.70;39.80;;;;;;4927801;29;20044;-78
2023/09/06 15:24:59;;;;;;;4.35;2.40;;;46.80;40.30;;;;;;4932400;29;20043;-81
2023/09/06 15:27:24;;;;;;;3.78;2.42;;;46.40;40.30;;;;;;4946275;29;20036;-79
2023/09/06 15:29:52;;;;;;;3.30;1.95;;;46.00;40.50;;;;;;4946959;29;20042;-80
2023/09/06 15:32:18;;;;;;;5.28;2.65;;;45.80;40.40;;;;;;4942057;29;20031;-78
2023/09/06 15:34:44;;;;;;;5.97;4.03;;;46.50;40.40;;;;;;4943221;29;20039;-78
2023/09/06 15:37:10;;;;;;;4.35;2.08;;;47.10;40.20;;;;;;4925881;29;20091;-79
2023/09/06 15:39:36;;;;;;;5.77;4.00;;;46.80;40.20;;;;;;4927418;29;20040;-78
2023/09/06 15:42:03;;;;;;;3.90;1.90;;;47.50;40.00;;;;;;4925956;29;20115;-77
2023/09/06 15:44:30;;;;;;;4.13;2.88;;;47.30;39.50;;;;;;4927162;29;20218;-80
2023/09/06 15:47:00;;;;;;;7.15;4.57;;;47.60;39.70;;;;;;4927509;29;20016;-77
2023/09/06 15:49:27;;;;;;;4.03;2.00;;;47.20;39.90;;;;;;4928582;29;20055;-77
2023/09/06 15:51:52;;;;;;;3.60;2.15;;;46.60;39.80;;;;;;4910853;29;20030;-79
2023/09/06 15:54:21;;;;;;;2.65;1.52;;;46.20;40.30;;;;;;4910140;29;20040;-78
2023/09/06 15:56:49;;;;;;;3.70;2.42;;;45.70;40.40;;;;;;4925840;29;20036;-78
2023/09/06 15:59:15;;;;;;;3.85;2.58;;;45.20;40.90;;;;;;4925597;29;20348;-79
2023/09/06 16:01:42;;;;;;;3.17;2.05;;;44.80;40.90;;;;;;4925408;29;20127;-79
2023/09/06 16:04:08;;;;;;;4.13;1.85;;;45.30;40.90;;;;;;4921460;29;20024;-79
2023/09/06 16:06:34;;;;;;;3.08;2.03;;;44.80;40.90;;;;;;4945813;29;20047;-77
2023/09/06 16:09:09;;;;;;;2.92;1.60;;;44.90;41.00;;;;;;4946193;29;20335;-77
2023/09/06 16:11:35;;;;;;;2.45;1.38;;;45.10;40.70;;;;;;4946055;29;20070;-80
2023/09/06 16:14:05;;;;;;;3.88;2.13;;;45.00;40.60;;;;;;4945956;29;20051;-79
2023/09/06 16:16:32;;;;;;;4.60;1.85;;;44.80;40.80;;;;;;4945847;29;20317;-80
2023/09/06 16:18:58;;;;;;;5.53;1.67;;;44.50;41.10;;;;;;4945236;29;20074;-79
2023/09/06 16:21:23;;;;;;;3.35;1.60;;;44.20;41.80;;;;;;4944300;29;20035;-78
2023/09/06 16:23:49;;;;;;;2.00;1.35;;;44.40;41.00;;;;;;4945075;29;20079;-80
2023/09/06 16:26:15;;;;;;;3.47;1.65;;;44.60;40.70;;;;;;4945271;29;20031;-79
2023/09/06 16:28:41;;;;;;;2.15;1.30;;;44.90;41.10;;;;;;4945693;29;20024;-78
2023/09/06 16:31:06;;;;;;;2.33;1.30;;;44.80;40.50;;;;;;4941496;29;20202;-78
2023/09/06 16:33:34;;;;;;;2.28;1.23;;;44.60;40.80;;;;;;4926923;29;20087;-80
2023/09/06 16:36:06;;;;;;;2.50;1.60;;;44.50;40.90;;;;;;4926565;29;20040;-79
2023/09/06 16:38:35;;;;;;;2.67;1.63;;;44.40;41.20;;;;;;4926016;29;20111;-79
2023/09/06 16:41:02;;;;;;;1.98;1.30;;;43.80;41.40;;;;;;4926598;29;20036;-80
2023/09/06 16:43:29;;;;;;;3.28;1.40;;;43.90;41.50;;;;;;4925237;29;20035;-78
2023/09/06 16:45:56;;;;;;;4.40;1.70;;;43.90;41.30;;;;;;4925306;29;20225;-77
2023/09/06 16:48:21;;;;;;;2.50;1.52;;;43.70;41.60;;;;;;4925510;29;20024;-78
2023/09/06 16:50:47;;;;;;;5.88;1.60;;;43.50;42.00;;;;;;4925673;29;20095;-78
2023/09/06 16:53:13;;;;;;;2.08;1.25;;;43.30;41.70;;;;;;4926281;29;20032;-78
2023/09/06 16:55:39;;;;;;;2.90;1.42;;;42.80;42.00;;;;;;4926947;29;20191;-78
2023/09/06 16:58:11;;;;;;;3.33;1.48;;;42.40;42.40;;;;;;4926299;29;20032;-78
2023/09/06 17:00:37;;;;;;;2.85;1.88;;;41.60;43.20;;;;;;4925617;29;20058;-79
2023/09/06 17:03:05;;;;;;;3.97;1.45;;;40.20;44.00;;;;;;4926009;29;20116;-78
2023/09/06 17:05:33;;;;;;;4.78;1.48;;;38.80;45.00;;;;;;4926689;29;20314;-79
2023/09/06 17:08:26;;;;;;;3.65;1.67;;;37.10;47.00;;;;;;4926882;29;20058;-81
2023/09/06 17:10:52;;;;;;;2.28;1.42;;;35.80;48.50;;;;;;4926843;29;20036;-79
2023/09/06 17:13:18;;;;;;;3.80;1.70;;;34.60;50.00;;;;;;4940721;29;20032;-77
2023/09/06 17:15:47;;;;;;;2.40;1.30;;;33.80;51.30;;;;;;4941119;29;20322;-80
2023/09/06 17:18:20;;;;;;;4.25;1.58;;;33.00;52.70;;;;;;4926143;29;20031;-78
2023/09/06 17:20:46;;;;;;;3.65;1.77;;;32.40;53.20;;;;;;4941206;29;20314;-79